Time;durP1;ratioP1;P1;durP2;ratioP2;P2;SDS_P1;SDS_P2;PMS_P1;PMS_P2;Temp;Humidity;BMP_temperature;BMP_pressure;BME280_temperature;BME280_humidity;BME280_pressure;Samples;Min_cycle;Max_cycle;Signal;HPM_P1;HPM_P2
2022/06/26 00:00:11;;;;;;;5.40;4.07;;;;;;;;;;5069660;28;20476;-75
2022/06/26 00:02:38;;;;;;;4.43;4.03;;;;;;;;;;5069742;28;20448;-75
2022/06/26 00:05:07;;;;;;;4.30;4.00;;;;;;;;;;5071656;28;20972;-76
2022/06/26 00:07:35;;;;;;;5.10;4.60;;;;;;;;;;5073321;28;20528;-76
2022/06/26 00:10:02;;;;;;;5.20;4.70;;;;;;;;;;5073634;28;20455;-76
2022/06/26 00:12:29;;;;;;;4.70;4.40;;;;;;;;;;5073232;28;20457;-75
2022/06/26 00:14:56;;;;;;;5.60;5.20;;;;;;;;;;5073647;28;20439;-74
2022/06/26 00:17:23;;;;;;;5.53;5.03;;;;;;;;;;5073186;28;20448;-76
2022/06/26 00:19:50;;;;;;;5.87;5.27;;;;;;;;;;5073430;28;20482;-76
2022/06/26 00:22:19;;;;;;;6.53;4.60;;;;;;;;;;5073104;28;20453;-76
2022/06/26 00:24:46;;;;;;;5.47;5.00;;;;;;;;;;5073229;28;20445;-75
2022/06/26 00:27:14;;;;;;;5.23;4.73;;;;;;;;;;5073196;28;20548;-77
2022/06/26 00:29:41;;;;;;;4.90;4.40;;;;;;;;;;5073262;28;20448;-76
2022/06/26 00:32:09;;;;;;;4.93;4.00;;;;;;;;;;5072953;28;20534;-75
2022/06/26 00:34:36;;;;;;;6.27;5.67;;;;;;;;;;5073708;28;20449;-75
2022/06/26 00:37:03;;;;;;;7.70;5.03;;;;;;;;;;5073088;28;20457;-76
2022/06/26 00:39:31;;;;;;;6.67;5.27;;;;;;;;;;5073071;28;20531;-75
2022/06/26 00:41:58;;;;;;;4.73;4.33;;;;;;;;;;5072930;28;20549;-76
2022/06/26 00:44:26;;;;;;;4.50;4.20;;;;;;;;;;5072447;28;20444;-76
2022/06/26 00:46:53;;;;;;;4.40;4.10;;;;;;;;;;5073120;28;20440;-76
2022/06/26 00:49:21;;;;;;;5.20;4.70;;;;;;;;;;5072810;28;20498;-77
2022/06/26 00:51:49;;;;;;;4.60;4.20;;;;;;;;;;5072779;28;20456;-75
2022/06/26 00:54:16;;;;;;;4.13;3.93;;;;;;;;;;5072518;28;20498;-76
2022/06/26 00:56:45;;;;;;;3.90;3.60;;;;;;;;;;5072586;28;20502;-75
2022/06/26 00:59:12;;;;;;;3.20;3.00;;;;;;;;;;5072577;28;20449;-76
2022/06/26 01:01:39;;;;;;;2.87;2.57;;;;;;;;;;5072645;28;20479;-75
2022/06/26 01:04:06;;;;;;;3.10;2.43;;;;;;;;;;5072185;28;20441;-76
2022/06/26 01:06:34;;;;;;;2.20;2.10;;;;;;;;;;5072896;28;20441;-75
2022/06/26 01:09:01;;;;;;;2.87;2.30;;;;;;;;;;5062388;28;20449;-75
2022/06/26 01:11:29;;;;;;;2.80;2.60;;;;;;;;;;5052366;28;20457;-76
2022/06/26 01:13:58;;;;;;;2.80;2.70;;;;;;;;;;5052229;28;20453;-77
2022/06/26 01:16:26;;;;;;;2.30;2.20;;;;;;;;;;5052317;28;20449;-75
2022/06/26 01:18:54;;;;;;;2.77;2.37;;;;;;;;;;5052238;28;20499;-75
2022/06/26 01:21:22;;;;;;;2.47;2.37;;;;;;;;;;5051923;28;20485;-75
2022/06/26 01:23:50;;;;;;;2.47;2.37;;;;;;;;;;5051847;28;20442;-76
2022/06/26 01:26:18;;;;;;;2.40;2.20;;;;;;;;;;5051887;28;20499;-76
2022/06/26 01:28:45;;;;;;;2.50;2.40;;;;;;;;;;5051947;28;20468;-75
2022/06/26 01:31:12;;;;;;;2.50;2.40;;;;;;;;;;5066442;28;20468;-76
2022/06/26 01:33:39;;;;;;;2.23;2.13;;;;;;;;;;5060040;28;20936;-75
2022/06/26 01:36:07;;;;;;;3.50;3.20;;;;;;;;;;5071576;28;20884;-75
2022/06/26 01:38:34;;;;;;;2.60;2.50;;;;;;;;;;5071414;28;20472;-75
2022/06/26 01:41:02;;;;;;;2.80;2.60;;;;;;;;;;5071433;28;20480;-76
2022/06/26 01:43:30;;;;;;;2.30;2.20;;;;;;;;;;5071425;28;20457;-76
2022/06/26 01:45:58;;;;;;;2.73;2.47;;;;;;;;;;5071663;28;20445;-75
2022/06/26 01:48:25;;;;;;;3.13;2.83;;;;;;;;;;5071761;28;20441;-76
2022/06/26 01:50:53;;;;;;;3.07;2.70;;;;;;;;;;5072074;28;20607;-75
2022/06/26 01:53:20;;;;;;;2.80;2.70;;;;;;;;;;5070996;28;20444;-76
2022/06/26 01:55:47;;;;;;;3.00;2.80;;;;;;;;;;5069134;28;20812;-76
2022/06/26 01:58:15;;;;;;;3.27;3.00;;;;;;;;;;5071458;28;20498;-75
2022/06/26 02:00:43;;;;;;;3.00;2.70;;;;;;;;;;5071484;28;20534;-77
2022/06/26 02:03:10;;;;;;;2.80;2.63;;;;;;;;;;5070966;28;20439;-75
2022/06/26 02:05:38;;;;;;;2.70;2.60;;;;;;;;;;5071002;28;20470;-76
2022/06/26 02:08:05;;;;;;;3.10;2.70;;;;;;;;;;5071373;28;20452;-75
2022/06/26 02:16:03;;;;;;;3.00;2.90;;;;;;;;;;5070804;28;20927;-75
2022/06/26 02:18:30;;;;;;;2.90;2.70;;;;;;;;;;5070961;28;20925;-75
2022/06/26 02:20:57;;;;;;;2.93;2.77;;;;;;;;;;5070901;28;20492;-75
2022/06/26 02:23:25;;;;;;;5.57;5.07;;;;;;;;;;5070765;28;20448;-75
2022/06/26 02:25:52;;;;;;;3.30;3.03;;;;;;;;;;5070933;28;20445;-75
2022/06/26 02:28:20;;;;;;;2.90;2.70;;;;;;;;;;5070383;28;20451;-75
2022/06/26 02:30:48;;;;;;;2.73;2.53;;;;;;;;;;5076293;28;20518;-75
2022/06/26 02:33:15;;;;;;;2.77;2.67;;;;;;;;;;5087983;28;20500;-75
2022/06/26 02:35:42;;;;;;;2.60;2.40;;;;;;;;;;5074522;28;20429;-75
2022/06/26 02:38:09;;;;;;;5.30;2.60;;;;;;;;;;5071641;28;20790;-76
2022/06/26 02:40:36;;;;;;;2.70;2.60;;;;;;;;;;5071476;28;20500;-76
2022/06/26 02:43:03;;;;;;;2.83;2.63;;;;;;;;;;5070750;28;20452;-75
2022/06/26 02:45:31;;;;;;;2.63;2.43;;;;;;;;;;5070929;28;21182;-76
2022/06/26 02:47:58;;;;;;;2.83;2.67;;;;;;;;;;5071087;28;20441;-74
2022/06/26 02:50:25;;;;;;;2.97;2.80;;;;;;;;;;5071049;28;20453;-75
2022/06/26 02:52:53;;;;;;;3.20;3.00;;;;;;;;;;5071326;28;20497;-75
2022/06/26 02:55:20;;;;;;;2.77;2.57;;;;;;;;;;5071352;28;20448;-76
2022/06/26 02:57:47;;;;;;;3.60;2.90;;;;;;;;;;5072412;28;20445;-76
2022/06/26 03:00:15;;;;;;;3.47;3.27;;;;;;;;;;5073312;28;20930;-76
2022/06/26 03:02:43;;;;;;;3.70;3.50;;;;;;;;;;5071309;28;20815;-75
2022/06/26 03:05:11;;;;;;;3.00;2.80;;;;;;;;;;5070939;28;20498;-75
2022/06/26 03:07:38;;;;;;;3.30;3.10;;;;;;;;;;5070922;28;20441;-77
2022/06/26 03:10:05;;;;;;;3.53;3.33;;;;;;;;;;5051004;28;20452;-74
2022/06/26 03:12:32;;;;;;;3.13;2.80;;;;;;;;;;5050099;28;20945;-75
2022/06/26 03:15:02;;;;;;;3.53;3.20;;;;;;;;;;5050690;28;20448;-75
2022/06/26 03:17:29;;;;;;;3.50;3.20;;;;;;;;;;5050639;28;20488;-75
2022/06/26 03:19:57;;;;;;;2.90;2.70;;;;;;;;;;5052305;28;20472;-75
2022/06/26 03:22:24;;;;;;;2.83;2.73;;;;;;;;;;5065098;28;20477;-76
2022/06/26 03:24:51;;;;;;;3.70;3.50;;;;;;;;;;5064898;28;20492;-75
2022/06/26 03:27:18;;;;;;;3.50;3.30;;;;;;;;;;5064544;28;20442;-75
2022/06/26 03:29:45;;;;;;;3.50;3.30;;;;;;;;;;5064695;28;20496;-75
2022/06/26 03:32:12;;;;;;;3.60;3.30;;;;;;;;;;5064618;28;20469;-75
2022/06/26 03:34:39;;;;;;;3.57;3.37;;;;;;;;;;5064948;28;20478;-75
2022/06/26 03:37:08;;;;;;;3.60;2.80;;;;;;;;;;5064290;28;20446;-75
2022/06/26 03:39:35;;;;;;;3.20;3.00;;;;;;;;;;5053798;28;20453;-75
2022/06/26 03:42:02;;;;;;;2.83;2.63;;;;;;;;;;5054393;28;20885;-75
2022/06/26 03:44:29;;;;;;;3.30;3.10;;;;;;;;;;5054292;28;20460;-76
2022/06/26 03:46:57;;;;;;;3.37;3.17;;;;;;;;;;5054336;28;20448;-75
2022/06/26 03:49:24;;;;;;;3.20;2.90;;;;;;;;;;5053952;28;20860;-75
2022/06/26 03:51:52;;;;;;;3.00;2.80;;;;;;;;;;5054106;28;20511;-75
2022/06/26 03:54:21;;;;;;;3.70;3.00;;;;;;;;;;5053441;28;20449;-75
2022/06/26 03:56:48;;;;;;;3.23;3.03;;;;;;;;;;5053640;28;20449;-75
2022/06/26 03:59:15;;;;;;;3.27;2.97;;;;;;;;;;5053835;28;20449;-76
2022/06/26 04:01:42;;;;;;;2.63;2.43;;;;;;;;;;5053795;28;20485;-76
2022/06/26 04:04:09;;;;;;;3.17;2.93;;;;;;;;;;5053301;28;20444;-76
2022/06/26 04:06:36;;;;;;;3.10;2.90;;;;;;;;;;5053642;28;20445;-76
2022/06/26 04:09:03;;;;;;;3.03;2.83;;;;;;;;;;5064494;28;20498;-75
2022/06/26 04:11:32;;;;;;;3.00;2.70;;;;;;;;;;5073826;28;20461;-75
2022/06/26 04:13:59;;;;;;;3.10;2.83;;;;;;;;;;5072795;28;20494;-75
2022/06/26 04:16:26;;;;;;;3.10;2.80;;;;;;;;;;5073451;28;20509;-76
2022/06/26 04:18:53;;;;;;;6.00;2.50;;;;;;;;;;5073193;28;20449;-75
2022/06/26 04:21:20;;;;;;;2.30;2.20;;;;;;;;;;5073182;28;20480;-76
2022/06/26 04:23:47;;;;;;;1.60;1.50;;;;;;;;;;5073046;28;20440;-75
2022/06/26 04:26:14;;;;;;;1.80;1.70;;;;;;;;;;5073264;28;20453;-76
2022/06/26 04:28:42;;;;;;;2.20;2.10;;;;;;;;;;5073001;28;21151;-75
2022/06/26 04:31:09;;;;;;;1.90;1.80;;;;;;;;;;5072871;28;20486;-75
2022/06/26 04:33:36;;;;;;;2.70;2.50;;;;;;;;;;5069619;28;20452;-76
2022/06/26 04:36:04;;;;;;;2.57;2.40;;;;;;;;;;5071729;28;20494;-75
2022/06/26 04:38:31;;;;;;;2.23;2.13;;;;;;;;;;5071675;28;20803;-75
2022/06/26 04:40:58;;;;;;;2.43;2.20;;;;;;;;;;5071854;28;20464;-77
2022/06/26 04:43:25;;;;;;;4.40;2.70;;;;;;;;;;5073065;28;20446;-75
2022/06/26 04:45:53;;;;;;;3.20;3.00;;;;;;;;;;5074800;28;20507;-76
2022/06/26 04:48:20;;;;;;;3.27;3.07;;;;;;;;;;5071424;28;20494;-77
2022/06/26 04:50:47;;;;;;;5.00;2.50;;;;;;;;;;5071065;28;20460;-76
2022/06/26 04:53:14;;;;;;;3.60;2.53;;;;;;;;;;5071272;28;20444;-76
2022/06/26 04:55:41;;;;;;;2.70;2.50;;;;;;;;;;5071154;28;20494;-75
2022/06/26 04:58:09;;;;;;;2.70;2.53;;;;;;;;;;5071418;28;20436;-76
2022/06/26 05:00:36;;;;;;;2.77;2.57;;;;;;;;;;5071014;28;20492;-75
2022/06/26 05:03:04;;;;;;;2.83;2.63;;;;;;;;;;5067374;28;20504;-75
2022/06/26 05:05:31;;;;;;;3.10;2.97;;;;;;;;;;5071699;28;20858;-75
2022/06/26 05:07:58;;;;;;;5.60;2.90;;;;;;;;;;5063891;28;20494;-76
2022/06/26 05:10:25;;;;;;;2.90;2.70;;;;;;;;;;5070923;28;21001;-75
2022/06/26 05:12:52;;;;;;;3.33;3.13;;;;;;;;;;5071358;28;20506;-76
2022/06/26 05:15:19;;;;;;;3.30;3.10;;;;;;;;;;5070717;28;20449;-76
2022/06/26 05:17:46;;;;;;;3.63;3.33;;;;;;;;;;5070800;28;20810;-75
2022/06/26 05:20:14;;;;;;;2.90;2.70;;;;;;;;;;5071093;28;20455;-76
2022/06/26 05:22:41;;;;;;;2.93;2.73;;;;;;;;;;5070654;28;20472;-76
2022/06/26 05:25:09;;;;;;;2.83;2.63;;;;;;;;;;5070873;28;20445;-77
2022/06/26 05:27:36;;;;;;;3.67;3.47;;;;;;;;;;5070773;28;20444;-75
2022/06/26 05:30:04;;;;;;;3.73;3.53;;;;;;;;;;5070549;28;20467;-77
2022/06/26 05:32:31;;;;;;;2.90;2.70;;;;;;;;;;5034392;28;1041092;-76
2022/06/26 05:34:58;;;;;;;3.30;3.10;;;;;;;;;;5071937;28;20249;-75
2022/06/26 05:37:27;;;;;;;3.20;3.00;;;;;;;;;;5071773;28;20436;-75
2022/06/26 05:39:54;;;;;;;3.17;2.97;;;;;;;;;;5071804;28;20441;-76
2022/06/26 05:42:21;;;;;;;3.50;3.30;;;;;;;;;;5071451;28;20530;-77
2022/06/26 05:44:48;;;;;;;4.00;3.57;;;;;;;;;;5071298;28;20441;-75
2022/06/26 05:47:15;;;;;;;3.30;3.10;;;;;;;;;;5071545;28;20479;-76
2022/06/26 05:49:42;;;;;;;3.30;3.10;;;;;;;;;;5071320;28;20522;-76
2022/06/26 05:52:09;;;;;;;4.00;3.27;;;;;;;;;;5071556;28;20457;-76
2022/06/26 05:54:37;;;;;;;3.90;3.30;;;;;;;;;;5070887;28;20540;-76
2022/06/26 05:57:05;;;;;;;3.77;3.43;;;;;;;;;;5071095;28;20464;-76
2022/06/26 05:59:32;;;;;;;3.20;3.00;;;;;;;;;;5071425;28;20449;-75
2022/06/26 06:01:59;;;;;;;3.30;3.10;;;;;;;;;;5070602;28;20476;-75
2022/06/26 06:04:26;;;;;;;2.87;2.70;;;;;;;;;;5070513;28;20878;-76
2022/06/26 06:06:53;;;;;;;3.40;3.10;;;;;;;;;;5070912;28;20440;-75
2022/06/26 06:09:20;;;;;;;4.63;2.90;;;;;;;;;;5070632;28;20786;-75
2022/06/26 06:11:48;;;;;;;3.53;3.33;;;;;;;;;;5070993;28;20465;-74
2022/06/26 06:14:15;;;;;;;3.50;3.30;;;;;;;;;;5070779;28;20445;-76
2022/06/26 06:16:42;;;;;;;2.77;2.57;;;;;;;;;;5070854;28;20436;-76
2022/06/26 06:19:09;;;;;;;2.80;2.13;;;;;;;;;;5070971;28;20441;-75
2022/06/26 06:21:36;;;;;;;2.03;1.93;;;;;;;;;;5070914;28;20484;-77
2022/06/26 06:24:03;;;;;;;1.83;1.73;;;;;;;;;;5070938;28;20444;-75
2022/06/26 06:26:30;;;;;;;3.33;3.03;;;;;;;;;;5071825;28;20452;-75
2022/06/26 06:28:58;;;;;;;3.13;2.63;;;;;;;;;;5070196;28;20522;-74
2022/06/26 06:31:26;;;;;;;2.13;1.93;;;;;;;;;;5070512;28;20468;-75
2022/06/26 06:33:53;;;;;;;1.40;1.30;;;;;;;;;;5070599;28;20453;-75
2022/06/26 06:36:20;;;;;;;1.40;1.30;;;;;;;;;;5068791;28;20449;-75
2022/06/26 06:38:47;;;;;;;1.37;1.30;;;;;;;;;;5070114;28;20925;-76
2022/06/26 06:41:14;;;;;;;1.27;1.27;;;;;;;;;;5062918;28;20465;-75
2022/06/26 06:43:41;;;;;;;2.10;2.00;;;;;;;;;;5070291;28;20538;-75
2022/06/26 06:46:09;;;;;;;2.47;2.23;;;;;;;;;;5066047;28;20504;-75
2022/06/26 06:48:36;;;;;;;3.20;1.80;;;;;;;;;;5066153;28;20448;-75
2022/06/26 06:51:03;;;;;;;2.20;2.00;;;;;;;;;;5061892;28;20473;-75
2022/06/26 06:53:30;;;;;;;1.90;1.80;;;;;;;;;;5057059;28;20454;-75
2022/06/26 06:55:57;;;;;;;1.90;1.80;;;;;;;;;;5068429;28;20444;-75
2022/06/26 06:58:24;;;;;;;2.30;2.07;;;;;;;;;;5070712;28;20440;-76
2022/06/26 07:00:51;;;;;;;2.50;2.40;;;;;;;;;;5070508;28;20469;-75
2022/06/26 07:03:21;;;;;;;2.73;2.53;;;;;;;;;;5070204;28;20549;-75
2022/06/26 07:05:48;;;;;;;3.73;2.23;;;;;;;;;;5070067;28;20514;-75
2022/06/26 07:08:15;;;;;;;4.67;2.30;;;;;;;;;;5070481;28;20445;-75
2022/06/26 07:10:42;;;;;;;2.13;1.93;;;;;;;;;;5070583;28;20469;-75
2022/06/26 07:13:10;;;;;;;1.70;1.60;;;;;;;;;;5070214;28;20441;-76
2022/06/26 07:15:37;;;;;;;2.27;1.80;;;;;;;;;;5070398;28;20475;-75
2022/06/26 07:18:04;;;;;;;1.80;1.80;;;;;;;;;;5070490;28;20436;-74
2022/06/26 07:20:32;;;;;;;1.90;1.80;;;;;;;;;;5070383;28;20486;-76
2022/06/26 07:22:59;;;;;;;2.10;2.00;;;;;;;;;;5070292;28;20530;-76
2022/06/26 07:25:26;;;;;;;2.20;2.07;;;;;;;;;;5070405;28;20818;-76
2022/06/26 07:27:53;;;;;;;2.23;2.13;;;;;;;;;;5070410;28;20440;-76
2022/06/26 07:30:21;;;;;;;2.10;2.00;;;;;;;;;;5070156;28;20444;-75
2022/06/26 07:32:48;;;;;;;2.13;1.93;;;;;;;;;;5069568;28;20448;-77
2022/06/26 07:35:15;;;;;;;1.97;1.87;;;;;;;;;;5070111;28;20441;-75
2022/06/26 07:37:46;;;;;;;1.67;1.57;;;;;;;;;;5070094;28;20510;-77
2022/06/26 07:40:13;;;;;;;1.70;1.43;;;;;;;;;;5070288;28;20467;-75
2022/06/26 07:42:40;;;;;;;1.77;1.67;;;;;;;;;;5069944;28;20488;-75
2022/06/26 07:45:08;;;;;;;1.10;1.10;;;;;;;;;;5069927;28;20928;-75
2022/06/26 07:47:35;;;;;;;1.60;1.50;;;;;;;;;;5069940;28;20506;-76
2022/06/26 07:50:02;;;;;;;1.50;1.40;;;;;;;;;;5069942;28;20502;-75
2022/06/26 07:52:29;;;;;;;1.70;1.60;;;;;;;;;;5069695;28;20525;-76
2022/06/26 07:54:57;;;;;;;2.73;1.50;;;;;;;;;;5069932;28;20444;-76
2022/06/26 07:57:24;;;;;;;1.50;1.50;;;;;;;;;;5069910;28;20449;-74
2022/06/26 07:59:51;;;;;;;1.80;1.70;;;;;;;;;;5069822;28;20944;-76
2022/06/26 08:02:18;;;;;;;2.00;1.90;;;;;;;;;;5069344;28;20476;-75
2022/06/26 08:04:45;;;;;;;1.97;1.87;;;;;;;;;;5069593;28;20445;-76
2022/06/26 08:07:12;;;;;;;1.70;1.60;;;;;;;;;;5064948;28;20511;-75
2022/06/26 08:09:39;;;;;;;2.30;2.07;;;;;;;;;;5061030;28;20539;-75
2022/06/26 08:12:08;;;;;;;1.70;1.60;;;;;;;;;;5065170;28;20469;-77
2022/06/26 08:14:35;;;;;;;1.93;1.70;;;;;;;;;;5062515;28;20478;-76
2022/06/26 08:17:02;;;;;;;1.70;1.60;;;;;;;;;;5069435;28;20525;-75
2022/06/26 08:19:29;;;;;;;1.77;1.67;;;;;;;;;;5069578;28;20452;-76
2022/06/26 08:22:02;;;;;;;2.20;1.57;;;;;;;;;;5069167;28;20530;-75
2022/06/26 08:24:30;;;;;;;1.70;1.60;;;;;;;;;;5069906;28;20451;-76
2022/06/26 08:26:57;;;;;;;2.13;1.73;;;;;;;;;;5073189;28;20436;-76
2022/06/26 08:29:25;;;;;;;1.73;1.63;;;;;;;;;;5074329;28;20532;-76
2022/06/26 08:31:52;;;;;;;1.40;1.30;;;;;;;;;;5072665;28;20472;-76
2022/06/26 08:34:19;;;;;;;1.50;1.50;;;;;;;;;;5072232;28;20432;-76
2022/06/26 08:36:46;;;;;;;1.27;1.27;;;;;;;;;;5072546;28;20445;-75
2022/06/26 08:39:13;;;;;;;1.70;1.60;;;;;;;;;;5072661;28;20482;-76
2022/06/26 08:41:42;;;;;;;1.80;1.70;;;;;;;;;;5072226;28;20972;-76
2022/06/26 08:44:09;;;;;;;1.70;1.50;;;;;;;;;;5072298;28;20476;-75
2022/06/26 08:46:38;;;;;;;1.40;1.40;;;;;;;;;;5072540;28;20490;-75
2022/06/26 08:49:09;;;;;;;1.30;1.30;;;;;;;;;;5055489;28;20499;-75
2022/06/26 08:51:37;;;;;;;1.80;1.67;;;;;;;;;;5059260;28;20526;-75
2022/06/26 08:54:04;;;;;;;1.63;1.40;;;;;;;;;;5056354;28;20440;-76
2022/06/26 08:56:31;;;;;;;1.77;1.60;;;;;;;;;;5067154;28;20449;-75
2022/06/26 08:58:58;;;;;;;1.43;1.43;;;;;;;;;;5070676;28;20448;-75
2022/06/26 09:01:25;;;;;;;2.37;1.77;;;;;;;;;;5072377;28;20460;-76
2022/06/26 09:03:54;;;;;;;1.60;1.50;;;;;;;;;;5072260;28;20530;-76
2022/06/26 09:06:21;;;;;;;1.63;1.53;;;;;;;;;;5063676;28;20457;-76
2022/06/26 09:08:49;;;;;;;1.27;1.27;;;;;;;;;;5072433;28;20471;-75
2022/06/26 09:11:17;;;;;;;2.33;1.47;;;;;;;;;;5072775;28;20468;-76
2022/06/26 09:13:44;;;;;;;1.47;1.40;;;;;;;;;;5072458;28;20510;-76
2022/06/26 09:16:12;;;;;;;1.97;1.57;;;;;;;;;;5066971;28;20457;-76
2022/06/26 09:18:40;;;;;;;1.40;1.40;;;;;;;;;;5072470;28;20556;-75
2022/06/26 09:21:09;;;;;;;3.27;1.47;;;;;;;;;;5072288;28;20461;-75
2022/06/26 09:23:37;;;;;;;1.30;1.30;;;;;;;;;;5072382;28;20473;-75
2022/06/26 09:26:04;;;;;;;1.77;1.60;;;;;;;;;;5072603;28;20455;-75
2022/06/26 09:28:32;;;;;;;1.10;1.10;;;;;;;;;;5072208;28;20444;-75
2022/06/26 09:30:59;;;;;;;1.50;1.40;;;;;;;;;;5071700;28;20502;-75
2022/06/26 09:33:27;;;;;;;1.50;1.40;;;;;;;;;;5071231;28;20503;-76
2022/06/26 09:35:55;;;;;;;1.20;1.13;;;;;;;;;;5072094;28;20441;-76
2022/06/26 09:38:24;;;;;;;1.40;1.30;;;;;;;;;;5071435;28;20548;-76
2022/06/26 09:40:52;;;;;;;1.40;1.30;;;;;;;;;;5072373;28;20586;-76
2022/06/26 09:43:29;;;;;;;1.40;1.30;;;;;;;;;;5071895;28;20476;-77
2022/06/26 09:45:57;;;;;;;1.20;1.20;;;;;;;;;;5076059;28;20791;-76
2022/06/26 09:48:24;;;;;;;1.20;1.20;;;;;;;;;;5075476;28;20468;-76
2022/06/26 09:50:52;;;;;;;1.83;1.33;;;;;;;;;;5076467;28;20529;-76
2022/06/26 09:53:19;;;;;;;2.43;1.30;;;;;;;;;;5073088;28;20514;-76
2022/06/26 09:55:48;;;;;;;1.80;1.70;;;;;;;;;;5074177;28;20502;-76
2022/06/26 09:58:15;;;;;;;2.50;1.60;;;;;;;;;;5072594;28;20498;-75
2022/06/26 10:06:25;;;;;;;1.40;1.30;;;;;;;;;;5061277;28;20457;-75
2022/06/26 10:09:03;;;;;;;1.30;1.30;;;;;;;;;;5057051;28;20523;-76
2022/06/26 10:11:33;;;;;;;1.70;1.60;;;;;;;;;;5054382;28;20461;-76
2022/06/26 10:14:02;;;;;;;1.73;1.63;;;;;;;;;;5053392;28;20441;-76
2022/06/26 10:16:43;;;;;;;1.33;1.33;;;;;;;;;;5053360;28;20525;-76
2022/06/26 10:19:19;;;;;;;1.33;1.33;;;;;;;;;;5054522;28;20509;-76
2022/06/26 10:21:47;;;;;;;1.53;1.50;;;;;;;;;;5053956;28;20560;-75
2022/06/26 10:24:15;;;;;;;1.40;1.30;;;;;;;;;;5053370;28;20477;-75
2022/06/26 10:26:51;;;;;;;1.30;1.30;;;;;;;;;;5055607;28;20459;-76
2022/06/26 10:29:18;;;;;;;1.43;1.33;;;;;;;;;;5074433;28;20442;-75
2022/06/26 10:31:47;;;;;;;1.20;1.20;;;;;;;;;;5067960;28;20472;-75
2022/06/26 10:34:16;;;;;;;1.40;1.20;;;;;;;;;;5072890;28;20835;-77
2022/06/26 10:36:43;;;;;;;3.10;1.57;;;;;;;;;;5073248;28;20440;-75
2022/06/26 10:39:10;;;;;;;1.23;1.23;;;;;;;;;;5074982;28;20440;-76
2022/06/26 10:44:35;;;;;;;1.40;1.33;;;;;;;;;;5064361;28;20455;-76
2022/06/26 10:47:02;;;;;;;1.23;1.23;;;;;;;;;;5072198;28;20849;-76
2022/06/26 10:49:29;;;;;;;1.20;1.20;;;;;;;;;;5072460;28;20541;-76
2022/06/26 10:51:56;;;;;;;1.43;1.30;;;;;;;;;;5072734;28;20487;-75
2022/06/26 10:54:24;;;;;;;1.30;1.27;;;;;;;;;;5071699;28;20514;-75
2022/06/26 10:57:03;;;;;;;1.23;1.23;;;;;;;;;;5072461;28;20529;-78
2022/06/26 10:59:31;;;;;;;1.40;1.30;;;;;;;;;;5073098;28;20498;-76
2022/06/26 11:01:58;;;;;;;1.30;1.30;;;;;;;;;;5071857;28;20460;-76
2022/06/26 11:04:26;;;;;;;1.10;1.10;;;;;;;;;;5071212;28;20995;-76
2022/06/26 11:06:53;;;;;;;1.10;1.10;;;;;;;;;;5071152;28;20490;-75
2022/06/26 11:09:21;;;;;;;1.37;1.30;;;;;;;;;;5071390;28;20447;-76
2022/06/26 11:11:52;;;;;;;1.10;1.10;;;;;;;;;;5071286;28;20457;-75
2022/06/26 11:14:19;;;;;;;1.27;1.00;;;;;;;;;;5070980;28;20524;-76
2022/06/26 11:16:47;;;;;;;1.20;1.20;;;;;;;;;;5071192;28;20957;-77
2022/06/26 11:19:24;;;;;;;1.50;1.40;;;;;;;;;;5070630;28;20452;-76
2022/06/26 11:21:51;;;;;;;1.00;1.00;;;;;;;;;;5069751;28;20525;-75
2022/06/26 11:24:18;;;;;;;1.47;1.43;;;;;;;;;;5069847;28;20491;-76
2022/06/26 11:26:46;;;;;;;1.27;1.20;;;;;;;;;;5070395;28;20444;-75
2022/06/26 11:29:13;;;;;;;2.20;1.20;;;;;;;;;;5070218;28;20463;-76
2022/06/26 11:31:47;;;;;;;4.40;1.00;;;;;;;;;;5070160;28;20890;-75
2022/06/26 11:34:16;;;;;;;1.47;1.20;;;;;;;;;;5070859;28;20448;-74
2022/06/26 11:36:51;;;;;;;1.30;1.30;;;;;;;;;;5071205;28;20444;-77
2022/06/26 11:39:18;;;;;;;1.20;1.10;;;;;;;;;;5070654;28;20958;-76
2022/06/26 11:41:45;;;;;;;1.73;1.47;;;;;;;;;;5070770;28;20460;-75
2022/06/26 11:44:13;;;;;;;1.47;1.37;;;;;;;;;;5069806;28;20484;-76
2022/06/26 11:46:40;;;;;;;1.40;1.30;;;;;;;;;;5070492;28;20448;-77
2022/06/26 11:49:10;;;;;;;1.20;1.20;;;;;;;;;;5070718;28;20602;-76
2022/06/26 11:51:39;;;;;;;1.60;1.50;;;;;;;;;;5069873;28;20498;-76
2022/06/26 11:54:06;;;;;;;2.17;1.30;;;;;;;;;;5069574;28;20441;-76
2022/06/26 11:56:33;;;;;;;1.37;1.20;;;;;;;;;;5069947;28;20943;-74
2022/06/26 11:59:01;;;;;;;1.30;1.30;;;;;;;;;;5069984;28;20441;-75
2022/06/26 12:01:32;;;;;;;1.80;1.20;;;;;;;;;;5071821;28;20594;-76
2022/06/26 12:03:59;;;;;;;1.20;1.20;;;;;;;;;;5073627;28;20598;-76
2022/06/26 12:06:29;;;;;;;1.70;1.60;;;;;;;;;;5073863;28;20440;-76
2022/06/26 12:08:58;;;;;;;1.47;1.47;;;;;;;;;;5063628;28;20991;-75
2022/06/26 12:11:25;;;;;;;1.43;1.43;;;;;;;;;;5054219;28;20874;-77
2022/06/26 12:13:52;;;;;;;2.33;1.37;;;;;;;;;;5055094;28;20948;-76
2022/06/26 12:16:19;;;;;;;1.30;1.30;;;;;;;;;;5053753;28;20441;-77
2022/06/26 12:18:49;;;;;;;1.13;1.13;;;;;;;;;;5053728;28;20453;-76
2022/06/26 12:21:17;;;;;;;1.10;1.10;;;;;;;;;;5053178;28;20507;-76
2022/06/26 12:23:45;;;;;;;1.90;1.40;;;;;;;;;;5053024;28;20477;-74
2022/06/26 12:26:14;;;;;;;1.47;1.47;;;;;;;;;;5055712;28;20437;-76
2022/06/26 12:28:51;;;;;;;1.70;1.60;;;;;;;;;;5057881;28;20915;-75
2022/06/26 12:31:19;;;;;;;1.47;1.33;;;;;;;;;;5057335;28;20464;-76
2022/06/26 12:33:47;;;;;;;1.27;1.23;;;;;;;;;;5057166;28;20449;-75
2022/06/26 12:36:14;;;;;;;3.97;1.20;;;;;;;;;;5057244;28;20445;-74
2022/06/26 12:38:42;;;;;;;1.47;1.20;;;;;;;;;;5055596;28;20456;-76
2022/06/26 12:41:16;;;;;;;1.00;1.00;;;;;;;;;;5054001;28;20484;-76
2022/06/26 12:43:45;;;;;;;1.50;1.50;;;;;;;;;;5053738;28;20481;-75
2022/06/26 12:46:12;;;;;;;1.10;1.10;;;;;;;;;;5061277;28;20452;-76
2022/06/26 12:48:39;;;;;;;1.20;1.10;;;;;;;;;;5071947;28;20445;-75
2022/06/26 12:51:06;;;;;;;1.17;1.10;;;;;;;;;;5072281;28;20490;-75
2022/06/26 12:53:33;;;;;;;1.13;1.13;;;;;;;;;;5071721;28;20441;-76
2022/06/26 12:56:00;;;;;;;1.10;1.10;;;;;;;;;;5071827;28;20781;-75
2022/06/26 12:58:27;;;;;;;1.67;1.63;;;;;;;;;;5071752;28;20449;-75
2022/06/26 13:00:55;;;;;;;1.07;1.07;;;;;;;;;;5071380;28;20465;-75
2022/06/26 13:03:22;;;;;;;1.30;1.20;;;;;;;;;;5071368;28;20498;-76
2022/06/26 13:05:50;;;;;;;1.10;1.10;;;;;;;;;;5065386;28;20488;-75
2022/06/26 13:08:17;;;;;;;1.67;1.50;;;;;;;;;;5068907;28;20785;-76
2022/06/26 13:10:45;;;;;;;0.87;0.83;;;;;;;;;;5071603;28;20457;-74
2022/06/26 13:13:12;;;;;;;1.13;1.10;;;;;;;;;;5071226;28;20531;-75
2022/06/26 13:15:39;;;;;;;1.10;1.10;;;;;;;;;;5071321;28;20485;-76
2022/06/26 13:18:08;;;;;;;1.43;1.33;;;;;;;;;;5071306;28;20486;-75
2022/06/26 13:20:35;;;;;;;1.40;1.40;;;;;;;;;;5070924;28;20460;-75
2022/06/26 13:23:02;;;;;;;0.97;0.97;;;;;;;;;;5070897;28;20470;-76
2022/06/26 13:25:29;;;;;;;1.10;1.10;;;;;;;;;;5071717;28;21030;-76
2022/06/26 13:27:56;;;;;;;1.43;1.30;;;;;;;;;;5071412;28;20838;-76
2022/06/26 13:30:23;;;;;;;1.60;1.50;;;;;;;;;;5071247;28;20494;-75
2022/06/26 13:32:52;;;;;;;1.13;1.10;;;;;;;;;;5070884;28;20464;-75
2022/06/26 13:35:20;;;;;;;1.50;1.40;;;;;;;;;;5070782;28;20952;-74
2022/06/26 13:37:47;;;;;;;1.23;1.13;;;;;;;;;;5071041;28;20471;-76
2022/06/26 13:40:14;;;;;;;1.07;1.00;;;;;;;;;;5071149;28;20899;-75
2022/06/26 13:42:41;;;;;;;1.20;1.20;;;;;;;;;;5070262;28;20531;-75
2022/06/26 13:45:09;;;;;;;1.60;1.20;;;;;;;;;;5064820;28;20531;-76
2022/06/26 13:47:37;;;;;;;1.40;1.40;;;;;;;;;;5051650;28;20463;-75
2022/06/26 13:50:04;;;;;;;1.40;1.40;;;;;;;;;;5056946;28;20547;-75
2022/06/26 13:52:32;;;;;;;1.20;1.10;;;;;;;;;;5070939;28;20465;-74
2022/06/26 13:54:59;;;;;;;1.70;1.30;;;;;;;;;;5071135;28;20514;-76
2022/06/26 13:57:26;;;;;;;1.20;1.07;;;;;;;;;;5070442;28;20506;-76
2022/06/26 13:59:53;;;;;;;1.80;1.47;;;;;;;;;;5071258;28;20445;-75
2022/06/26 14:02:20;;;;;;;1.33;1.23;;;;;;;;;;5071271;28;20472;-75
2022/06/26 14:04:48;;;;;;;1.10;1.10;;;;;;;;;;5071121;28;21052;-75
2022/06/26 14:07:15;;;;;;;1.00;1.00;;;;;;;;;;5071342;28;20464;-75
2022/06/26 14:09:43;;;;;;;1.37;1.37;;;;;;;;;;5071360;28;20498;-75
2022/06/26 14:12:10;;;;;;;1.17;1.17;;;;;;;;;;5071293;28;20514;-75
2022/06/26 14:14:37;;;;;;;1.20;1.10;;;;;;;;;;5070857;28;21056;-75
2022/06/26 14:17:05;;;;;;;1.43;1.40;;;;;;;;;;5071167;28;20493;-75
2022/06/26 14:19:32;;;;;;;1.13;1.13;;;;;;;;;;5071521;28;20451;-75
2022/06/26 14:27:29;;;;;;;1.83;1.40;;;;;;;;;;5070932;28;20786;-76
2022/06/26 14:29:56;;;;;;;1.20;1.20;;;;;;;;;;5071201;28;20440;-75
2022/06/26 14:32:23;;;;;;;3.30;1.30;;;;;;;;;;5068777;28;20898;-75
2022/06/26 14:34:50;;;;;;;1.00;1.00;;;;;;;;;;5069630;28;20445;-75
2022/06/26 14:37:17;;;;;;;1.57;1.53;;;;;;;;;;5070705;28;20587;-76
2022/06/26 14:39:45;;;;;;;1.30;1.20;;;;;;;;;;5071196;28;20452;-76
2022/06/26 14:42:12;;;;;;;1.40;1.40;;;;;;;;;;5070661;28;20464;-75
2022/06/26 14:44:39;;;;;;;1.30;1.20;;;;;;;;;;5070786;28;20472;-76
2022/06/26 14:47:06;;;;;;;1.40;1.30;;;;;;;;;;5070883;28;20436;-75
2022/06/26 14:49:33;;;;;;;1.50;1.50;;;;;;;;;;5071509;28;20822;-76
2022/06/26 14:52:00;;;;;;;1.13;1.13;;;;;;;;;;5070555;28;20465;-75
2022/06/26 14:54:27;;;;;;;1.27;1.27;;;;;;;;;;5070007;28;20441;-77
2022/06/26 14:56:56;;;;;;;1.40;1.30;;;;;;;;;;5070146;28;21013;-76
2022/06/26 14:59:24;;;;;;;2.90;2.70;;;;;;;;;;5069988;28;20453;-76
2022/06/26 15:01:51;;;;;;;1.10;1.00;;;;;;;;;;5069834;28;20842;-75
2022/06/26 15:04:18;;;;;;;1.60;1.50;;;;;;;;;;5069729;28;20444;-77